Time;durP1;ratioP1;P1;durP2;ratioP2;P2;SDS_P1;SDS_P2;PMS_P1;PMS_P2;Temp;Humidity;BMP_temperature;BMP_pressure;BME280_temperature;BME280_humidity;BME280_pressure;Samples;Min_cycle;Max_cycle;Signal;HPM_P1;HPM_P2
2021/04/27 00:00:45;;;;;;;3.55;2.25;;;;;;;8.24;38.67;99692.22;5056369;28;20037;-85
2021/04/27 00:03:12;;;;;;;5.70;2.53;;;;;;;8.17;39.00;99696.91;5055905;28;20049;-85
2021/04/27 00:05:38;;;;;;;6.80;2.60;;;;;;;8.10;38.99;99692.88;5056268;28;20076;-85
2021/04/27 00:08:05;;;;;;;4.38;2.22;;;;;;;8.03;38.91;99694.09;5055199;28;20046;-85
2021/04/27 00:10:32;;;;;;;5.95;2.30;;;;;;;7.97;39.14;99697.00;5055018;28;20056;-86
2021/04/27 00:13:00;;;;;;;6.28;2.17;;;;;;;7.91;39.46;99693.75;5055550;28;20052;-84
2021/04/27 00:15:29;;;;;;;5.03;2.80;;;;;;;7.83;39.28;99693.28;5055926;28;20081;-85
2021/04/27 00:17:55;;;;;;;3.25;2.05;;;;;;;7.76;39.20;99690.09;5054769;28;20045;-86
2021/04/27 00:20:24;;;;;;;2.10;1.90;;;;;;;7.71;39.61;99688.59;5054470;28;20067;-85
2021/04/27 00:22:53;;;;;;;3.63;2.40;;;;;;;7.64;39.76;99688.91;5054624;28;20053;-85
2021/04/27 00:25:19;;;;;;;3.72;2.10;;;;;;;7.60;39.65;99689.09;5055426;28;20056;-85
2021/04/27 00:27:50;;;;;;;3.65;2.50;;;;;;;7.55;39.73;99678.81;5054325;28;20050;-85
2021/04/27 00:30:19;;;;;;;4.68;2.13;;;;;;;7.50;40.12;99680.78;5054730;28;20053;-86
2021/04/27 00:32:46;;;;;;;3.90;2.53;;;;;;;7.47;40.14;99681.78;5054912;28;20053;-86
2021/04/27 00:35:14;;;;;;;2.70;2.17;;;;;;;7.43;40.39;99682.84;5055803;28;20064;-86
2021/04/27 00:37:40;;;;;;;4.82;2.08;;;;;;;7.38;40.25;99682.22;5054948;28;20082;-84
2021/04/27 00:40:09;;;;;;;10.32;2.60;;;;;;;7.36;40.65;99682.28;5053399;28;20050;-84
2021/04/27 00:42:39;;;;;;;3.53;2.50;;;;;;;7.30;41.07;99680.78;5056063;28;20120;-85
2021/04/27 00:45:10;;;;;;;3.90;2.40;;;;;;;7.26;41.63;99673.97;5054826;28;20067;-85
2021/04/27 00:47:37;;;;;;;3.58;2.38;;;;;;;7.25;40.48;99679.31;5054933;28;20049;-85
2021/04/27 00:50:09;;;;;;;4.53;2.17;;;;;;;7.22;42.00;99674.19;5054491;28;20073;-85
2021/04/27 00:52:36;;;;;;;4.03;2.30;;;;;;;7.22;40.78;99684.66;5053984;28;20045;-85
2021/04/27 00:55:06;;;;;;;6.15;2.10;;;;;;;7.22;41.75;99682.06;5055047;28;20288;-85
2021/04/27 00:57:32;;;;;;;4.70;2.17;;;;;;;7.22;40.80;99675.03;5055242;28;20054;-85
2021/04/27 00:59:59;;;;;;;4.88;2.53;;;;;;;7.21;41.08;99669.88;5054664;28;20029;-84
2021/04/27 01:02:27;;;;;;;5.68;2.60;;;;;;;7.21;41.21;99675.13;5054628;28;20055;-85
2021/04/27 01:04:55;;;;;;;3.92;2.22;;;;;;;7.21;41.16;99672.50;5054681;28;20045;-85
2021/04/27 01:07:28;;;;;;;3.92;2.80;;;;;;;7.19;41.45;99664.72;5058078;28;20049;-86
2021/04/27 01:09:59;;;;;;;3.30;2.20;;;;;;;7.21;41.98;99669.88;5058628;28;20030;-84
2021/04/27 01:12:38;;;;;;;6.05;3.08;;;;;;;7.20;42.12;99662.94;5058502;28;20065;-85
2021/04/27 01:15:06;;;;;;;3.88;2.08;;;;;;;7.25;40.97;99663.59;5058586;28;20057;-84
2021/04/27 01:17:33;;;;;;;5.72;2.50;;;;;;;7.27;40.90;99659.97;5058085;28;20029;-86
2021/04/27 01:20:07;;;;;;;5.53;2.55;;;;;;;7.28;41.52;99658.19;5059250;28;20072;-85
2021/04/27 01:22:57;;;;;;;4.97;2.80;;;;;;;7.31;41.50;99655.44;5058337;28;20050;-86
2021/04/27 01:25:34;;;;;;;4.53;2.70;;;;;;;7.37;41.38;99654.31;5058915;28;20048;-86
2021/04/27 01:28:04;;;;;;;5.43;2.45;;;;;;;7.41;40.62;99643.63;5059183;28;20041;-86
2021/04/27 01:30:37;;;;;;;5.13;2.40;;;;;;;7.46;40.07;99643.44;5057283;28;20105;-86
2021/04/27 01:33:05;;;;;;;;;;;;;;;7.50;39.75;99646.75;5058166;28;20058;-85
2021/04/27 01:35:33;;;;;;;3.42;2.45;;;;;;;7.56;39.69;99643.88;5057508;28;19921;-85
2021/04/27 01:38:00;;;;;;;5.80;2.53;;;;;;;7.56;39.72;99639.44;5057577;28;20032;-85
2021/04/27 01:40:27;;;;;;;2.88;2.47;;;;;;;7.57;39.77;99640.31;5057335;28;20049;-85
2021/04/27 01:42:55;;;;;;;3.97;2.80;;;;;;;7.56;39.67;99636.00;5058389;28;20052;-84
2021/04/27 01:45:21;;;;;;;3.00;2.30;;;;;;;7.57;39.52;99632.47;5057039;28;20049;-85
2021/04/27 01:47:48;;;;;;;7.32;2.72;;;;;;;7.58;39.66;99635.94;5056982;28;20048;-85
2021/04/27 01:50:14;;;;;;;5.72;2.50;;;;;;;7.58;39.88;99635.94;5056568;28;20064;-85
2021/04/27 01:52:40;;;;;;;3.70;2.50;;;;;;;7.58;39.39;99633.31;5056926;28;20100;-85
2021/04/27 01:55:07;;;;;;;5.00;2.80;;;;;;;7.57;39.40;99627.22;5057364;28;20049;-84
2021/04/27 01:57:34;;;;;;;5.10;2.60;;;;;;;7.56;39.25;99628.97;5057204;28;20046;-86
2021/04/27 02:00:00;;;;;;;3.95;2.70;;;;;;;7.54;39.23;99630.84;5056820;28;20115;-85
2021/04/27 02:02:26;;;;;;;4.30;2.80;;;;;;;7.52;39.58;99631.81;5056388;28;20045;-84
2021/04/27 02:04:52;;;;;;;7.40;2.95;;;;;;;7.49;39.33;99622.34;5055002;28;20049;-85
2021/04/27 02:07:18;;;;;;;4.25;2.88;;;;;;;7.48;39.32;99635.50;5056887;28;20041;-84
2021/04/27 02:09:45;;;;;;;9.68;3.80;;;;;;;7.45;39.53;99633.88;5056711;28;20029;-85
2021/04/27 02:12:11;;;;;;;7.78;3.50;;;;;;;7.41;39.44;99629.69;5056383;28;20050;-85
2021/04/27 02:14:37;;;;;;;8.15;3.42;;;;;;;7.39;39.44;99637.63;5056510;28;20040;-85
2021/04/27 02:17:12;;;;;;;9.75;4.13;;;;;;;7.38;39.63;99624.59;5056261;28;20053;-85
2021/04/27 02:19:40;;;;;;;5.65;3.17;;;;;;;7.37;39.64;99628.97;5055010;28;20045;-84
2021/04/27 02:22:08;;;;;;;6.03;3.03;;;;;;;7.36;39.86;99622.03;5055636;28;20059;-85
2021/04/27 02:24:38;;;;;;;7.75;3.05;;;;;;;7.35;39.60;99620.34;5055185;28;20053;-85
2021/04/27 02:27:06;;;;;;;4.75;2.70;;;;;;;7.33;39.41;99611.69;5056132;28;20060;-85
2021/04/27 02:29:35;;;;;;;5.47;2.88;;;;;;;7.29;39.94;99620.66;5055723;28;20037;-87
2021/04/27 02:32:02;;;;;;;6.45;3.10;;;;;;;7.27;39.82;99609.38;5056800;28;20068;-86
2021/04/27 02:34:28;;;;;;;5.28;2.50;;;;;;;7.24;39.67;99609.50;5056079;28;20089;-85
2021/04/27 02:36:55;;;;;;;5.32;2.70;;;;;;;7.24;39.49;99617.38;5056244;28;20060;-85
2021/04/27 02:39:22;;;;;;;3.83;2.50;;;;;;;7.22;39.73;99613.97;5056209;28;20046;-85
2021/04/27 02:41:49;;;;;;;6.90;2.67;;;;;;;7.20;39.25;99611.44;5057053;28;20049;-85
2021/04/27 02:44:15;;;;;;;4.35;2.58;;;;;;;7.17;38.99;99612.41;5055944;28;20145;-83
2021/04/27 02:46:46;;;;;;;3.38;2.20;;;;;;;7.14;39.67;99611.72;5055798;28;20054;-84
2021/04/27 02:49:13;;;;;;;4.53;2.75;;;;;;;7.10;39.38;99600.50;5056101;28;20067;-84
2021/04/27 02:51:39;;;;;;;4.38;2.70;;;;;;;7.08;39.32;99609.38;5054435;28;20057;-85
2021/04/27 02:54:06;;;;;;;6.72;2.40;;;;;;;7.07;39.37;99605.91;5056092;28;20049;-85
2021/04/27 02:56:33;;;;;;;7.65;2.72;;;;;;;7.06;39.44;99605.97;5056621;28;20045;-84
2021/04/27 02:59:01;;;;;;;5.53;2.58;;;;;;;7.05;39.48;99602.50;5056434;28;20105;-85
2021/04/27 03:01:28;;;;;;;4.72;2.80;;;;;;;7.03;39.14;99607.78;5055396;28;20050;-85
2021/04/27 03:03:54;;;;;;;3.60;2.00;;;;;;;7.00;39.41;99596.63;5054287;28;20417;-85
2021/04/27 03:06:20;;;;;;;5.03;2.60;;;;;;;6.98;39.20;99590.59;5054373;28;20067;-86
2021/04/27 03:08:46;;;;;;;5.15;2.53;;;;;;;6.96;39.07;99595.06;5053949;28;20046;-86
2021/04/27 03:11:13;;;;;;;6.15;2.40;;;;;;;6.94;39.01;99587.28;5055140;28;20069;-86
2021/04/27 03:13:39;;;;;;;4.00;2.60;;;;;;;6.92;39.29;99586.50;5054698;28;20057;-85
2021/04/27 03:16:05;;;;;;;3.47;2.10;;;;;;;6.89;39.32;99587.47;5054213;28;20053;-84
2021/04/27 03:18:32;;;;;;;3.83;2.38;;;;;;;6.89;39.11;99587.47;5054425;28;20065;-85
2021/04/27 03:20:58;;;;;;;4.05;2.25;;;;;;;6.86;39.14;99587.63;5054819;28;20060;-86
2021/04/27 03:23:25;;;;;;;3.97;2.10;;;;;;;6.84;39.35;99589.44;5053861;28;20064;-86
2021/04/27 03:25:51;;;;;;;4.18;2.20;;;;;;;6.83;39.00;99587.75;5053698;28;20034;-85
2021/04/27 03:28:17;;;;;;;4.32;2.22;;;;;;;6.82;38.92;99587.81;5054182;28;20055;-85
2021/04/27 03:30:44;;;;;;;5.07;2.40;;;;;;;6.79;38.94;99596.66;5055211;28;20041;-85
2021/04/27 03:33:10;;;;;;;4.32;2.33;;;;;;;6.78;39.06;99589.72;5055198;28;20049;-85
2021/04/27 03:35:36;;;;;;;5.32;2.20;;;;;;;6.78;39.05;99594.97;5055843;28;20242;-85
2021/04/27 03:38:03;;;;;;;2.83;2.15;;;;;;;6.77;38.89;99596.72;5054407;28;20057;-85
2021/04/27 03:40:29;;;;;;;4.72;1.98;;;;;;;6.76;39.05;99595.03;5055758;28;20038;-86
2021/04/27 03:42:55;;;;;;;5.60;2.05;;;;;;;6.75;39.01;99589.84;5055734;28;20053;-85
2021/04/27 03:45:22;;;;;;;4.05;2.10;;;;;;;6.73;39.07;99587.31;5055957;28;20037;-85
2021/04/27 03:47:49;;;;;;;5.90;2.15;;;;;;;6.75;39.04;99584.63;5056355;28;20067;-85
2021/04/27 03:50:20;;;;;;;4.03;2.30;;;;;;;6.72;39.39;99590.84;5055412;28;20067;-85
2021/04/27 03:52:46;;;;;;;3.45;1.73;;;;;;;6.72;39.08;99587.38;5056171;28;20051;-85
2021/04/27 03:55:17;;;;;;;2.28;1.85;;;;;;;6.70;38.88;99582.22;5053276;28;20055;-86
2021/04/27 03:57:43;;;;;;;4.10;1.50;;;;;;;6.68;38.85;99588.41;5051411;28;20060;-87
2021/04/27 04:00:10;;;;;;;3.85;1.80;;;;;;;6.66;38.99;99585.91;5048442;28;20045;-87
2021/04/27 04:02:36;;;;;;;3.22;1.90;;;;;;;6.65;38.84;99578.94;5048792;28;20045;-87
2021/04/27 04:05:04;;;;;;;4.40;2.22;;;;;;;6.62;38.89;99587.78;5054249;28;20501;-87
2021/04/27 04:07:30;;;;;;;3.17;2.10;;;;;;;6.62;38.84;99579.09;5053849;28;20065;-87
2021/04/27 04:09:56;;;;;;;2.58;1.88;;;;;;;6.61;38.80;99583.47;5052887;28;20046;-88
2021/04/27 04:12:22;;;;;;;2.20;1.70;;;;;;;6.60;38.85;99587.00;5053908;28;20053;-87
2021/04/27 04:14:48;;;;;;;3.50;1.75;;;;;;;6.60;38.84;99586.13;5052448;28;20052;-87
2021/04/27 04:17:14;;;;;;;3.67;1.70;;;;;;;6.60;38.68;99587.00;5053330;28;20049;-87
2021/04/27 04:19:40;;;;;;;7.10;1.65;;;;;;;6.60;38.83;99592.22;5053506;28;20042;-86
2021/04/27 04:22:07;;;;;;;3.40;1.80;;;;;;;6.61;38.57;99587.84;5052424;28;20045;-86
2021/04/27 04:24:33;;;;;;;6.07;2.40;;;;;;;6.63;38.75;99592.09;5052224;28;20053;-87
2021/04/27 04:27:00;;;;;;;3.08;1.80;;;;;;;6.62;38.75;99592.16;5052751;28;20060;-86
2021/04/27 04:29:27;;;;;;;4.63;1.67;;;;;;;6.63;38.55;99586.88;5052685;28;20053;-87
2021/04/27 04:31:53;;;;;;;4.80;1.88;;;;;;;6.63;38.78;99591.25;5053269;28;20055;-87
2021/04/27 04:34:20;;;;;;;4.80;1.80;;;;;;;6.63;38.65;99594.72;5052399;28;20037;-87
2021/04/27 04:36:47;;;;;;;3.78;1.98;;;;;;;6.63;38.57;99586.88;5052404;28;20045;-86
2021/04/27 04:39:13;;;;;;;3.83;2.10;;;;;;;6.63;38.56;99591.25;5052593;28;20052;-87
2021/04/27 04:41:39;;;;;;;5.45;2.10;;;;;;;6.63;38.65;99592.09;5052311;28;20434;-86
2021/04/27 04:44:06;;;;;;;5.47;2.05;;;;;;;6.64;38.88;99590.31;5052696;28;20057;-87
2021/04/27 04:46:37;;;;;;;3.42;1.92;;;;;;;6.65;38.69;99594.63;5053170;28;20049;-87
2021/04/27 04:49:04;;;;;;;2.90;1.92;;;;;;;6.65;38.85;99590.25;5051918;28;20050;-87
2021/04/27 04:51:30;;;;;;;3.88;1.80;;;;;;;6.68;38.67;99598.88;5052990;28;20046;-87
2021/04/27 04:53:57;;;;;;;5.65;2.10;;;;;;;6.69;38.99;99595.38;5050209;28;20050;-87
2021/04/27 04:56:23;;;;;;;5.13;2.15;;;;;;;6.71;38.89;99596.13;5051310;28;20462;-87
2021/04/27 04:58:49;;;;;;;2.85;1.90;;;;;;;6.73;38.84;99602.16;5052678;28;20057;-86
2021/04/27 05:01:15;;;;;;;3.30;1.90;;;;;;;6.73;38.62;99610.00;5052403;28;20077;-87
2021/04/27 05:03:42;;;;;;;3.42;2.03;;;;;;;6.76;38.51;99602.88;5052548;28;20046;-87
2021/04/27 05:06:12;;;;;;;7.72;1.92;;;;;;;6.78;38.66;99616.72;5050015;28;20049;-87
2021/04/27 05:09:12;;;;;;;3.00;1.80;;;;;;;6.83;38.64;99615.66;5049919;28;20048;-87
2021/04/27 05:11:31;;;;;;;2.78;1.70;;;;;;;6.87;38.60;99612.88;5048239;28;20115;-87
2021/04/27 05:13:58;;;;;;;2.70;1.55;;;;;;;6.91;38.84;99611.81;5048997;28;20542;-87
2021/04/27 05:16:24;;;;;;;4.03;1.88;;;;;;;6.95;38.81;99611.69;5048762;28;20060;-87
2021/04/27 05:18:52;;;;;;;3.22;1.63;;;;;;;6.99;38.50;99615.88;5050150;28;20045;-87
2021/04/27 05:21:19;;;;;;;5.32;2.03;;;;;;;7.03;38.82;99612.19;5049043;28;20113;-87
2021/04/27 05:23:45;;;;;;;5.55;1.75;;;;;;;7.07;38.61;99618.13;5049915;28;20113;-87
2021/04/27 05:26:12;;;;;;;3.72;1.75;;;;;;;7.12;38.61;99624.00;5049980;28;20076;-87
2021/04/27 05:28:38;;;;;;;5.30;2.05;;;;;;;7.17;38.33;99622.03;5050702;28;20465;-87
2021/04/27 05:31:06;;;;;;;3.38;1.70;;;;;;;7.21;38.40;99620.16;5050207;28;20054;-87
2021/04/27 05:33:34;;;;;;;2.53;1.92;;;;;;;7.25;38.24;99619.09;5049175;28;20058;-87
2021/04/27 05:36:01;;;;;;;8.43;2.47;;;;;;;7.28;38.51;99621.53;5050606;28;20518;-87
2021/04/27 05:38:27;;;;;;;3.72;1.85;;;;;;;7.34;38.16;99623.91;5051457;28;20076;-87
2021/04/27 05:40:53;;;;;;;2.80;1.55;;;;;;;7.38;38.49;99621.97;5052403;28;20502;-87
2021/04/27 05:43:19;;;;;;;3.38;1.67;;;;;;;7.41;38.35;99614.81;5053254;28;20029;-86
2021/04/27 05:45:45;;;;;;;2.58;1.60;;;;;;;7.44;38.09;99624.31;5052013;28;20049;-86
2021/04/27 05:48:12;;;;;;;4.50;1.83;;;;;;;7.49;37.97;99624.97;5051310;28;20053;-87
2021/04/27 05:50:39;;;;;;;5.00;1.80;;;;;;;7.53;38.17;99623.03;5053152;28;20059;-86
2021/04/27 05:53:06;;;;;;;4.68;2.17;;;;;;;7.56;38.06;99622.91;5056373;28;20057;-86
2021/04/27 05:55:32;;;;;;;8.38;1.80;;;;;;;7.59;37.72;99629.78;5056950;28;20062;-86
2021/04/27 05:57:58;;;;;;;4.97;1.83;;;;;;;7.61;37.76;99620.06;5056406;28;20080;-87
2021/04/27 06:00:25;;;;;;;5.30;2.10;;;;;;;7.61;37.89;99620.91;5054802;28;20060;-88
2021/04/27 06:02:51;;;;;;;5.90;1.88;;;;;;;7.62;37.85;99619.97;5055550;28;20133;-87
2021/04/27 06:05:17;;;;;;;5.25;2.15;;;;;;;7.61;37.61;99618.28;5056126;28;20117;-86
2021/04/27 06:07:43;;;;;;;4.28;2.22;;;;;;;7.61;37.81;99623.53;5055849;28;20033;-87
2021/04/27 06:10:10;;;;;;;6.47;2.10;;;;;;;7.62;38.00;99630.47;5055288;28;20045;-87
2021/04/27 06:12:37;;;;;;;6.03;1.85;;;;;;;7.63;38.22;99624.28;5055915;28;20060;-87
2021/04/27 06:15:04;;;;;;;2.80;1.80;;;;;;;7.63;38.21;99616.44;5055608;28;20084;-86
2021/04/27 06:17:32;;;;;;;5.07;1.98;;;;;;;7.69;38.35;99617.94;5056151;28;20061;-87
2021/04/27 06:19:59;;;;;;;2.72;1.90;;;;;;;7.74;37.91;99626.41;5055845;28;20042;-86
2021/04/27 06:22:25;;;;;;;5.40;1.80;;;;;;;7.80;38.01;99618.28;5056240;28;20059;-87
2021/04/27 06:24:51;;;;;;;7.13;2.00;;;;;;;7.87;37.87;99618.84;5055946;28;20076;-86
2021/04/27 06:27:19;;;;;;;6.10;1.55;;;;;;;7.94;38.02;99619.38;5055506;28;20054;-87
2021/04/27 06:29:47;;;;;;;5.50;1.58;;;;;;;7.99;38.13;99622.63;5055339;28;20077;-87
2021/04/27 06:32:13;;;;;;;4.03;1.77;;;;;;;8.06;38.07;99626.66;5053541;28;20050;-86
2021/04/27 06:34:40;;;;;;;5.22;1.80;;;;;;;8.12;37.95;99620.28;5055259;28;20084;-87
2021/04/27 06:37:06;;;;;;;3.40;1.88;;;;;;;8.18;37.85;99619.09;5055302;28;20114;-86
2021/04/27 06:39:32;;;;;;;2.70;1.83;;;;;;;8.25;37.93;99620.50;5055410;28;20035;-87
2021/04/27 06:41:59;;;;;;;4.28;1.20;;;;;;;8.32;37.80;99621.03;5056197;28;20076;-87
2021/04/27 06:44:25;;;;;;;3.08;1.80;;;;;;;8.38;37.64;99617.25;5052530;28;20050;-87
2021/04/27 06:46:51;;;;;;;5.22;1.77;;;;;;;8.45;37.56;99609.00;5054321;28;20125;-87
2021/04/27 06:49:17;;;;;;;3.30;1.98;;;;;;;8.53;37.46;99613.91;5054205;28;20076;-88
2021/04/27 06:51:44;;;;;;;7.30;1.60;;;;;;;8.61;37.05;99618.75;5053970;28;20053;-86
2021/04/27 06:54:10;;;;;;;2.50;1.30;;;;;;;8.65;37.07;99609.81;5053910;28;20054;-86
2021/04/27 06:56:36;;;;;;;2.83;1.40;;;;;;;8.71;37.42;99612.09;5053713;28;20105;-87
2021/04/27 06:59:25;;;;;;;5.90;1.70;;;;;;;8.79;37.16;99619.56;5053371;28;20034;-87
2021/04/27 07:01:51;;;;;;;1.70;1.10;;;;;;;8.85;37.03;99615.78;5053035;28;20053;-87
2021/04/27 07:04:17;;;;;;;3.00;1.30;;;;;;;8.91;37.16;99617.25;5052001;28;20056;-87
2021/04/27 07:06:43;;;;;;;3.83;1.27;;;;;;;8.97;36.71;99612.53;5053568;28;20056;-86
2021/04/27 07:09:09;;;;;;;3.95;1.30;;;;;;;9.02;36.82;99614.06;5054623;28;20049;-86
2021/04/27 07:11:36;;;;;;;4.32;1.40;;;;;;;9.08;36.49;99613.75;5053402;28;20427;-87
2021/04/27 07:14:02;;;;;;;4.78;1.17;;;;;;;9.13;36.52;99615.16;5051654;28;20140;-87
2021/04/27 07:16:28;;;;;;;2.90;1.60;;;;;;;9.20;36.25;99610.44;5050150;28;20406;-87
2021/04/27 07:18:55;;;;;;;2.47;1.20;;;;;;;9.27;36.66;99613.59;5051665;28;20056;-87
2021/04/27 07:21:22;;;;;;;2.85;1.13;;;;;;;9.35;36.64;99614.03;5053491;28;20049;-87
2021/04/27 07:23:49;;;;;;;3.58;1.30;;;;;;;9.43;36.27;99610.13;5053907;28;20045;-87
2021/04/27 07:26:16;;;;;;;3.35;1.30;;;;;;;9.51;36.33;99605.31;5054511;28;20054;-87
2021/04/27 07:28:42;;;;;;;1.73;1.23;;;;;;;9.58;35.89;99603.19;5051063;28;20053;-87
2021/04/27 07:31:08;;;;;;;2.10;1.20;;;;;;;9.64;35.80;99606.31;5051856;28;20050;-87
2021/04/27 07:33:34;;;;;;;1.77;1.20;;;;;;;9.75;36.27;99604.88;5052826;28;20502;-87
2021/04/27 07:36:01;;;;;;;6.70;1.23;;;;;;;9.83;35.76;99609.72;5051093;28;20453;-87
2021/04/27 07:38:27;;;;;;;3.83;1.38;;;;;;;9.90;35.96;99611.91;5051536;28;20109;-87
2021/04/27 07:40:53;;;;;;;4.65;1.23;;;;;;;9.99;35.82;99610.50;5052961;28;20109;-87
2021/04/27 07:43:21;;;;;;;8.45;1.60;;;;;;;10.07;35.79;99604.84;5052058;28;20063;-87
2021/04/27 07:45:47;;;;;;;4.97;1.48;;;;;;;10.17;35.37;99608.63;5052588;28;20053;-87
2021/04/27 07:48:13;;;;;;;2.88;1.65;;;;;;;10.25;35.75;99602.91;5050699;28;20423;-87
2021/04/27 07:50:40;;;;;;;2.95;1.10;;;;;;;10.35;35.62;99597.13;5051382;28;20095;-87
2021/04/27 07:53:06;;;;;;;8.10;1.80;;;;;;;10.43;35.17;99592.22;5052357;28;20057;-87
2021/04/27 07:55:32;;;;;;;2.67;1.17;;;;;;;10.52;35.45;99597.00;5049250;28;20053;-87
2021/04/27 07:58:01;;;;;;;2.17;1.20;;;;;;;10.61;35.28;99590.34;5050389;28;20095;-87
2021/04/27 08:00:27;;;;;;;3.67;1.40;;;;;;;10.70;34.80;99591.59;5050592;28;20116;-87
2021/04/27 08:02:58;;;;;;;3.80;1.23;;;;;;;10.78;34.97;99589.34;5047986;28;20115;-87
2021/04/27 08:05:24;;;;;;;4.10;1.20;;;;;;;10.86;35.06;99588.84;5048865;28;20109;-87
2021/04/27 08:07:50;;;;;;;3.25;1.52;;;;;;;10.95;34.83;99582.16;5045269;28;20073;-87
2021/04/27 08:10:17;;;;;;;3.78;1.50;;;;;;;11.04;35.07;99589.53;5047693;28;20049;-87
2021/04/27 08:12:46;;;;;;;2.47;1.30;;;;;;;11.14;34.96;99581.88;5049977;28;20049;-87
2021/04/27 08:15:15;;;;;;;1.80;1.15;;;;;;;11.24;34.57;99583.94;5049742;28;20056;-87
2021/04/27 08:17:41;;;;;;;5.47;1.48;;;;;;;11.34;34.53;99577.97;5051252;28;20045;-87
2021/04/27 08:20:10;;;;;;;4.03;1.40;;;;;;;11.44;34.52;99582.69;5049534;28;20049;-87
2021/04/27 08:22:37;;;;;;;5.28;1.55;;;;;;;11.54;34.55;99569.75;5048778;28;20057;-87
2021/04/27 08:25:04;;;;;;;2.33;1.35;;;;;;;11.62;34.36;99567.47;5049200;28;20049;-87
2021/04/27 08:27:32;;;;;;;2.65;1.38;;;;;;;11.71;33.76;99573.97;5048893;28;20056;-87
2021/04/27 08:29:59;;;;;;;2.72;1.65;;;;;;;11.79;33.46;99568.19;5047786;28;20050;-87
2021/04/27 08:32:25;;;;;;;3.15;1.10;;;;;;;11.87;34.08;99571.16;5045562;28;20072;-87
2021/04/27 08:34:51;;;;;;;1.83;1.38;;;;;;;11.95;33.98;99557.47;5046461;28;20075;-87
2021/04/27 08:37:18;;;;;;;2.47;1.48;;;;;;;12.05;33.94;99574.41;5046509;28;20055;-87
2021/04/27 08:39:44;;;;;;;6.32;1.40;;;;;;;12.17;33.00;99569.25;5048498;28;20045;-87
2021/04/27 08:42:13;;;;;;;4.13;2.10;;;;;;;12.27;32.96;99564.22;5046338;28;20045;-87
2021/04/27 08:44:40;;;;;;;1.95;1.30;;;;;;;12.35;32.94;99553.97;5045134;28;20045;-88
2021/04/27 08:47:08;;;;;;;1.83;1.33;;;;;;;12.42;32.92;99557.06;5041171;28;20056;-88
2021/04/27 08:49:35;;;;;;;3.58;1.58;;;;;;;12.49;32.37;99558.34;5043111;28;20080;-87
2021/04/27 08:52:03;;;;;;;3.28;1.70;;;;;;;12.55;32.30;99557.91;5042779;28;20049;-87
2021/04/27 08:54:35;;;;;;;2.03;1.38;;;;;;;12.63;32.36;99560.00;5043750;28;20105;-87
2021/04/27 08:57:04;;;;;;;4.22;1.80;;;;;;;12.69;31.59;99569.31;5044459;28;20041;-87
2021/04/27 08:59:30;;;;;;;3.55;1.60;;;;;;;12.75;32.00;99558.34;5046060;28;20514;-87
2021/04/27 09:01:57;;;;;;;1.83;1.55;;;;;;;12.81;31.53;99563.19;5043740;28;20054;-87
2021/04/27 09:04:41;;;;;;;2.25;1.70;;;;;;;12.82;31.94;99554.28;5057587;28;20045;-88
2021/04/27 09:07:19;;;;;;;3.38;1.90;;;;;;;12.89;31.51;99560.84;5043359;28;20109;-88
2021/04/27 09:09:57;;;;;;;3.50;1.45;;;;;;;12.97;30.66;99556.84;5043494;28;20513;-86
2021/04/27 09:12:29;;;;;;;2.35;1.73;;;;;;;13.05;30.57;99553.63;5048263;28;20053;-87
2021/04/27 09:14:57;;;;;;;7.05;1.65;;;;;;;13.12;31.04;99547.81;5043002;28;20049;-87
2021/04/27 09:17:29;;;;;;;6.82;1.52;;;;;;;13.19;30.24;99547.38;5045985;28;20092;-87
2021/04/27 09:19:57;;;;;;;2.63;1.80;;;;;;;13.25;30.59;99549.56;5041357;28;20041;-88
2021/04/27 09:22:33;;;;;;;1.65;1.30;;;;;;;13.30;30.51;99547.44;5044651;28;20053;-87
2021/04/27 09:25:06;;;;;;;3.60;1.23;;;;;;;13.35;29.90;99545.31;5043554;28;20056;-87
2021/04/27 09:27:35;;;;;;;;;;;;;;;13.42;30.89;99535.97;5050152;28;20073;-87
2021/04/27 09:30:23;;;;;;;2.15;1.40;;;;;;;13.49;30.24;99543.50;5048327;28;19988;-88
2021/04/27 09:32:58;;;;;;;3.42;1.30;;;;;;;13.58;30.29;99536.69;5050195;28;20050;-87
2021/04/27 09:35:30;;;;;;;2.20;1.30;;;;;;;13.63;29.99;99543.34;5048741;28;20052;-87
2021/04/27 09:38:15;;;;;;;2.97;1.20;;;;;;;13.67;30.58;99538.66;5048172;28;20072;-87
2021/04/27 09:41:03;;;;;;;3.13;1.20;;;;;;;13.75;30.50;99538.13;5043908;28;20053;-87
2021/04/27 09:43:31;;;;;;;1.65;1.30;;;;;;;13.87;30.20;99529.25;5049159;28;20049;-87
2021/04/27 09:46:01;;;;;;;3.60;1.20;;;;;;;13.95;30.16;99518.09;5049010;28;20068;-87
2021/04/27 09:48:59;;;;;;;3.28;1.42;;;;;;;14.01;30.61;99522.06;5046826;28;20068;-87
2021/04/27 09:51:34;;;;;;;2.22;1.40;;;;;;;14.14;30.39;99525.50;5045270;28;20084;-87
2021/04/27 09:54:06;;;;;;;5.95;1.50;;;;;;;14.22;29.79;99526.69;5047667;28;20045;-88
2021/04/27 09:56:35;;;;;;;2.22;1.13;;;;;;;14.29;29.58;99530.56;5046902;28;20083;-87
2021/04/27 09:59:09;;;;;;;3.90;1.60;;;;;;;14.31;28.82;99533.94;5047271;28;20072;-88
2021/04/27 10:01:36;;;;;;;2.33;1.00;;;;;;;14.36;28.63;99523.00;5043656;28;20052;-87
2021/04/27 10:04:03;;;;;;;4.53;1.25;;;;;;;14.39;29.40;99512.19;5045972;28;20045;-87
2021/04/27 10:06:30;;;;;;;2.25;1.30;;;;;;;14.44;29.78;99510.84;5044265;28;20069;-87
2021/04/27 10:08:57;;;;;;;6.20;1.70;;;;;;;14.53;29.99;99505.78;5044567;28;20045;-87
2021/04/27 10:11:26;;;;;;;2.85;1.25;;;;;;;14.59;29.62;99502.69;5045787;28;20062;-88
2021/04/27 10:13:54;;;;;;;2.70;1.30;;;;;;;14.68;29.24;99501.97;5047121;28;20384;-88
2021/04/27 10:16:23;;;;;;;2.17;1.10;;;;;;;14.75;29.21;99501.47;5043654;28;20050;-87
2021/04/27 10:18:54;;;;;;;4.82;1.52;;;;;;;14.79;29.20;99493.19;5042318;28;20099;-88
2021/04/27 10:21:21;;;;;;;3.38;1.42;;;;;;;14.88;28.70;99490.78;5046088;28;20045;-88
2021/04/27 10:23:50;;;;;;;2.10;1.10;;;;;;;14.95;29.18;99484.88;5037480;28;20057;-85
2021/04/27 10:26:21;;;;;;;2.65;1.50;;;;;;;15.02;27.97;99487.88;5038089;28;20053;-86
2021/04/27 10:29:19;;;;;;;2.63;1.42;;;;;;;15.06;28.18;99481.34;5036558;28;20099;-86
2021/04/27 10:31:48;;;;;;;2.70;1.25;;;;;;;15.18;27.85;99476.03;5019000;28;20057;-86
2021/04/27 10:34:17;;;;;;;3.17;1.60;;;;;;;15.23;27.97;99473.84;5018545;28;20045;-87
2021/04/27 10:36:46;;;;;;;2.33;1.40;;;;;;;15.28;27.75;99471.66;5017720;28;20057;-86
2021/04/27 10:39:12;;;;;;;1.85;1.20;;;;;;;15.36;28.25;99452.47;5016080;28;20045;-86
2021/04/27 10:41:46;;;;;;;1.25;1.15;;;;;;;15.41;27.81;99455.59;5018939;28;20046;-86
2021/04/27 10:44:15;;;;;;;2.50;1.30;;;;;;;15.55;28.11;99449.13;5016781;28;20053;-86
2021/04/27 10:46:44;;;;;;;2.20;1.15;;;;;;;15.69;28.54;99453.28;5019928;28;20049;-86
2021/04/27 10:49:31;;;;;;;2.63;1.10;;;;;;;15.84;29.13;99445.00;5019289;28;20057;-87
2021/04/27 10:51:59;;;;;;;2.28;1.38;;;;;;;16.10;28.81;99439.31;5020577;28;20110;-86
2021/04/27 10:54:35;;;;;;;4.70;1.67;;;;;;;16.36;28.85;99441.56;5020115;28;20054;-86
2021/04/27 10:57:15;;;;;;;5.50;1.50;;;;;;;16.80;30.12;99438.66;5018656;28;20062;-86
2021/04/27 10:59:53;;;;;;;1.52;1.40;;;;;;;17.30;28.52;99427.13;5023246;28;20054;-87
2021/04/27 11:02:26;;;;;;;3.08;1.27;;;;;;;17.89;28.29;99431.56;5037087;28;20399;-87
2021/04/27 11:04:56;;;;;;;2.58;1.20;;;;;;;18.47;27.58;99426.25;5036393;28;20103;-87
2021/04/27 11:07:22;;;;;;;2.33;1.20;;;;;;;19.02;27.10;99417.38;5035404;28;20054;-87
2021/04/27 11:10:00;;;;;;;5.30;1.30;;;;;;;19.57;26.50;99420.06;5035038;28;20103;-86
2021/04/27 11:12:51;;;;;;;4.57;1.17;;;;;;;20.18;25.46;99416.63;5035323;28;20060;-87
2021/04/27 11:15:27;;;;;;;1.60;1.40;;;;;;;20.74;25.68;99415.38;5034118;28;20057;-87
2021/04/27 11:18:11;;;;;;;4.45;1.15;;;;;;;21.25;25.16;99418.03;5033904;28;20054;-87
2021/04/27 11:21:12;;;;;;;2.03;1.10;;;;;;;21.69;25.52;99405.31;5033964;28;20061;-87
2021/04/27 11:23:52;;;;;;;5.60;1.35;;;;;;;22.20;24.30;99404.25;5032934;28;20100;-87
2021/04/27 11:26:37;;;;;;;2.25;1.10;;;;;;;22.59;23.54;99406.13;5026280;28;20052;-87
2021/04/27 11:29:12;;;;;;;1.35;1.08;;;;;;;22.97;23.23;99399.19;5020357;28;20483;-87
2021/04/27 11:31:59;;;;;;;2.50;1.20;;;;;;;23.27;24.27;99405.53;5013325;28;20057;-87
2021/04/27 11:34:27;;;;;;;6.70;1.27;;;;;;;23.62;23.35;99386.31;5014028;28;20045;-86
2021/04/27 11:36:54;;;;;;;1.33;1.10;;;;;;;23.91;22.89;99383.84;5013087;28;20518;-87
2021/04/27 11:39:27;;;;;;;2.63;1.10;;;;;;;24.17;21.86;99387.94;5014029;28;20128;-87
2021/04/27 11:42:02;;;;;;;4.63;1.50;;;;;;;24.42;21.88;99380.44;5012981;28;20046;-87
2021/04/27 11:44:40;;;;;;;1.35;1.10;;;;;;;24.62;22.34;99379.81;5013587;28;20089;-87
2021/04/27 11:47:17;;;;;;;1.30;1.20;;;;;;;24.87;21.50;99376.81;5014197;28;20062;-87